createdAt,value
2022-10-25T00:00:20.591Z,96337.28
2022-10-25T00:02:47.621Z,96345.03
2022-10-25T00:05:16.011Z,96337.28
2022-10-25T00:07:42.391Z,96334.56
2022-10-25T00:10:09.359Z,96329.88
2022-10-25T00:12:45.547Z,96334.50
2022-10-25T00:15:15.419Z,96334.28
2022-10-25T00:17:43.254Z,96334.09
2022-10-25T00:20:11.788Z,96337.38
2022-10-25T00:22:38.861Z,96338.69
2022-10-25T00:25:06.615Z,96333.84
2022-10-25T00:27:33.912Z,96332.19
2022-10-25T00:30:00.388Z,96334.88
2022-10-25T00:32:26.905Z,96330.25
2022-10-25T00:34:53.587Z,96332.31
2022-10-25T00:37:20.187Z,96322.94
2022-10-25T00:39:47.070Z,96331.50
2022-10-25T00:42:18.724Z,96337.41
2022-10-25T00:44:53.679Z,96339.91
2022-10-25T00:47:19.931Z,96334.75
2022-10-25T00:49:58.839Z,96335.56
2022-10-25T00:52:26.916Z,96339.88
2022-10-25T00:54:54.386Z,96335.78
2022-10-25T00:57:41.563Z,96337.44
2022-10-25T01:00:09.355Z,96334.78
2022-10-25T01:02:37.398Z,96335.97
2022-10-25T01:05:04.538Z,96336.19
2022-10-25T01:07:31.402Z,96327.81
2022-10-25T01:09:57.915Z,96325.59
2022-10-25T01:12:24.300Z,96329.69
2022-10-25T01:14:53.222Z,96318.03
2022-10-25T01:17:28.223Z,96319.22
2022-10-25T01:20:29.181Z,96311.09
2022-10-25T01:22:58.426Z,96320.47
2022-10-25T01:25:42.092Z,96322.72
2022-10-25T01:28:35.543Z,96317.25
2022-10-25T01:31:21.594Z,96316.00
2022-10-25T01:34:01.494Z,96316.41
2022-10-25T01:36:43.212Z,96315.56
2022-10-25T01:39:15.383Z,96322.72
2022-10-25T01:42:01.232Z,96320.47
2022-10-25T01:44:44.271Z,96316.19
2022-10-25T01:47:17.811Z,96315.56
2022-10-25T01:49:49.902Z,96304.75
2022-10-25T01:52:22.486Z,96306.56
2022-10-25T01:54:49.535Z,96317.16
2022-10-25T01:57:37.771Z,96311.69
2022-10-25T02:00:09.525Z,96323.28
2022-10-25T02:03:13.840Z,96324.09
2022-10-25T02:06:04.596Z,96318.97
2022-10-25T02:08:41.501Z,96315.94
2022-10-25T02:11:31.188Z,96315.13
2022-10-25T02:14:22.490Z,96309.41
2022-10-25T02:17:11.479Z,96316.56
2022-10-25T02:19:51.278Z,96316.16
2022-10-25T02:22:21.659Z,96319.84
2022-10-25T02:24:50.747Z,96327.38
2022-10-25T02:27:20.281Z,96315.16
2022-10-25T02:29:47.715Z,96326.97
2022-10-25T02:32:14.460Z,96322.09
2022-10-25T02:34:41.450Z,96329.63
2022-10-25T02:37:07.806Z,96323.72
2022-10-25T02:39:35.614Z,96324.94
2022-10-25T02:42:02.455Z,96326.56
2022-10-25T02:44:29.255Z,96325.34
2022-10-25T02:46:55.972Z,96328.63
2022-10-25T02:49:22.295Z,96325.53
2022-10-25T02:51:48.702Z,96323.28
2022-10-25T02:54:15.534Z,96324.50
2022-10-25T02:56:41.866Z,96324.50
2022-10-25T02:59:12.010Z,96323.50
2022-10-25T03:01:38.990Z,96319.03
2022-10-25T03:04:06.018Z,96319.44
2022-10-25T03:06:32.404Z,96318.00
2022-10-25T03:08:58.719Z,96315.16
2022-10-25T03:11:25.590Z,96323.28
2022-10-25T03:13:51.899Z,96326.16
2022-10-25T03:16:18.280Z,96318.59
2022-10-25T03:18:44.899Z,96323.28
2022-10-25T03:21:11.231Z,96325.94
2022-10-25T03:23:37.864Z,96322.28
2022-10-25T03:26:05.056Z,96322.06
2022-10-25T03:28:32.195Z,96310.84
2022-10-25T03:31:00.115Z,96321.06
2022-10-25T03:33:27.143Z,96315.94
2022-10-25T03:35:54.483Z,96325.94
2022-10-25T03:38:21.212Z,96322.06
2022-10-25T03:40:47.628Z,96325.31
2022-10-25T03:43:14.485Z,96335.06
2022-10-25T03:45:40.843Z,96331.31
2022-10-25T03:48:07.852Z,96333.75
2022-10-25T03:50:35.929Z,96338.56
2022-10-25T03:53:03.021Z,96345.03
2022-10-25T03:55:29.712Z,96350.22
2022-10-25T03:57:56.078Z,96338.97
2022-10-25T04:00:22.383Z,96348.91
2022-10-25T04:02:59.334Z,96355.06
2022-10-25T04:05:28.777Z,96348.13
2022-10-25T04:07:55.459Z,96353.72
2022-10-25T04:10:21.865Z,96350.56
2022-10-25T04:12:49.079Z,96357.44
2022-10-25T04:15:15.574Z,96359.41
2022-10-25T04:17:41.963Z,96354.44
2022-10-25T04:20:09.259Z,96351.59
2022-10-25T04:25:07.386Z,96351.16
2022-10-25T04:27:34.184Z,96358.59
2022-10-25T04:30:00.503Z,96354.19
2022-10-25T04:32:26.903Z,96360.03
2022-10-25T04:34:53.539Z,96367.84
2022-10-25T04:37:19.872Z,96371.69
2022-10-25T04:39:46.249Z,96353.50
2022-10-25T04:42:12.930Z,96357.09
2022-10-25T04:44:39.275Z,96353.69
2022-10-25T04:47:05.590Z,96356.94
2022-10-25T04:49:32.308Z,96362.44
2022-10-25T04:51:58.666Z,96365.00
2022-10-25T04:54:25.039Z,96363.88
2022-10-25T04:56:51.711Z,96365.38
2022-10-25T04:59:18.019Z,96368.22
2022-10-25T05:01:44.764Z,96370.03
2022-10-25T05:04:11.827Z,96366.50
2022-10-25T05:06:38.182Z,96381.22
2022-10-25T05:09:05.267Z,96370.38
2022-10-25T05:11:32.467Z,96379.31
2022-10-25T05:13:58.877Z,96369.81
2022-10-25T05:16:26.422Z,96378.84
2022-10-25T05:18:55.138Z,96377.91
2022-10-25T05:24:01.826Z,96376.16
2022-10-25T05:26:30.323Z,96375.78
2022-10-25T05:28:58.054Z,96380.03
2022-10-25T05:31:27.207Z,96375.75
2022-10-25T05:33:56.091Z,96377.16
2022-10-25T05:36:23.519Z,96375.16
2022-10-25T05:38:49.901Z,96385.56
2022-10-25T05:41:17.666Z,96378.84
2022-10-25T05:43:45.361Z,96393.91
2022-10-25T05:46:31.201Z,96384.50
2022-10-25T05:48:59.620Z,96397.88
2022-10-25T05:51:34.661Z,96391.31
2022-10-25T05:54:09.266Z,96400.06
2022-10-25T05:56:36.506Z,96404.50
2022-10-25T05:59:11.722Z,96408.59
2022-10-25T06:01:41.202Z,96416.91
2022-10-25T06:04:08.662Z,96419.84
2022-10-25T06:06:36.956Z,96415.19
2022-10-25T06:09:03.544Z,96413.06
2022-10-25T06:11:30.444Z,96420.94
2022-10-25T06:13:57.659Z,96422.38
2022-10-25T06:16:24.510Z,96426.06
2022-10-25T06:18:51.016Z,96420.19
2022-10-25T06:21:20.566Z,96421.84
2022-10-25T06:23:48.079Z,96429.06
2022-10-25T06:26:21.124Z,96438.53
2022-10-25T06:28:47.898Z,96435.63
2022-10-25T06:31:17.229Z,96436.22
2022-10-25T06:33:44.402Z,96434.81
2022-10-25T06:36:16.489Z,96440.34
2022-10-25T06:38:44.875Z,96441.59
2022-10-25T06:41:13.344Z,96446.88
2022-10-25T06:43:39.840Z,96443.81
2022-10-25T06:46:08.851Z,96444.47
2022-10-25T06:48:35.546Z,96447.56
2022-10-25T06:51:09.364Z,96451.16
2022-10-25T06:53:36.515Z,96443.81
2022-10-25T06:56:05.180Z,96456.91
2022-10-25T06:58:34.975Z,96451.94
2022-10-25T07:01:10.746Z,96450.38
2022-10-25T07:03:37.639Z,96450.78
2022-10-25T07:06:06.239Z,96461.97
2022-10-25T07:08:38.044Z,96457.94
2022-10-25T07:11:17.223Z,96459.59
2022-10-25T07:13:44.366Z,96469.19
2022-10-25T07:16:13.644Z,96474.06
2022-10-25T07:18:40.224Z,96471.81
2022-10-25T07:21:12.744Z,96476.56
2022-10-25T07:23:42.375Z,96472.88
2022-10-25T07:26:14.923Z,96479.25
2022-10-25T07:28:43.447Z,96475.41
2022-10-25T07:31:15.594Z,96474.19
2022-10-25T07:33:41.957Z,96470.13
2022-10-25T07:36:11.427Z,96467.28
2022-10-25T07:38:38.783Z,96473.44
2022-10-25T07:41:05.843Z,96486.53
2022-10-25T07:43:32.254Z,96481.84
2022-10-25T07:45:58.726Z,96478.00
2022-10-25T07:48:25.369Z,96477.59
2022-10-25T07:50:52.855Z,96489.06
2022-10-25T07:53:19.432Z,96487.19
2022-10-25T07:55:54.887Z,96490.91
2022-10-25T07:58:21.692Z,96491.97
2022-10-25T08:00:48.115Z,96494.22
2022-10-25T08:03:16.762Z,96485.44
2022-10-25T08:05:45.723Z,96490.13
2022-10-25T08:08:12.833Z,96498.91
2022-10-25T08:10:39.252Z,96496.25
2022-10-25T08:13:06.083Z,96499.53
2022-10-25T08:15:32.457Z,96499.75
2022-10-25T08:17:59.665Z,96508.06
2022-10-25T08:20:49.156Z,96502.78
2022-10-25T08:23:13.203Z,96506.91
2022-10-25T08:25:40.087Z,96505.03
2022-10-25T08:28:06.405Z,96508.53
2022-10-25T08:30:32.906Z,96500.81
2022-10-25T08:32:59.393Z,96502.63
2022-10-25T08:35:25.855Z,96504.44
2022-10-25T08:37:52.221Z,96503.81
2022-10-25T08:40:30.218Z,96501.72
2022-10-25T08:43:32.499Z,96492.91
2022-10-25T08:46:20.281Z,96495.63
2022-10-25T08:48:52.722Z,96492.06
2022-10-25T08:51:25.203Z,96485.31
2022-10-25T08:56:28.439Z,96480.25
2022-10-25T08:59:00.127Z,96490.69
2022-10-25T09:01:43.665Z,96481.13
2022-10-25T09:04:10.648Z,96484.03
2022-10-25T09:07:08.222Z,96487.72
2022-10-25T09:10:04.921Z,96485.66
2022-10-25T09:12:42.664Z,96491.03
2022-10-25T09:15:36.849Z,96488.84
2022-10-25T09:18:23.803Z,96484.34
2022-10-25T09:20:58.792Z,96489.13
2022-10-25T09:23:31.370Z,96491.72
2022-10-25T09:26:17.227Z,96479.56
2022-10-25T09:29:20.246Z,96489.56
2022-10-25T09:31:52.446Z,96491.53
2022-10-25T09:34:22.701Z,96489.19
2022-10-25T09:36:55.606Z,96490.44
2022-10-25T09:39:31.987Z,96496.13
2022-10-25T09:41:59.734Z,96505.00
2022-10-25T09:44:35.334Z,96494.47
2022-10-25T09:47:14.387Z,96490.00
2022-10-25T09:49:49.368Z,96499.81
2022-10-25T09:52:18.738Z,96504.41
2022-10-25T09:55:14.226Z,96497.66
2022-10-25T09:57:41.819Z,96501.63
2022-10-25T10:00:12.958Z,96500.34
2022-10-25T10:02:39.826Z,96499.06
2022-10-25T10:05:12.595Z,96497.31
2022-10-25T10:07:41.279Z,96497.75
2022-10-25T10:10:11.144Z,96503.81
2022-10-25T10:12:49.393Z,96496.78
2022-10-25T10:15:59.041Z,96487.97
2022-10-25T10:18:30.361Z,96494.59
2022-10-25T10:21:12.456Z,96499.03
2022-10-25T10:23:41.518Z,96489.66
2022-10-25T10:26:23.028Z,96487.28
2022-10-25T10:28:52.627Z,96484.06
2022-10-25T10:31:19.617Z,96491.34
2022-10-25T10:33:50.599Z,96484.31
2022-10-25T10:36:27.959Z,96484.94
2022-10-25T10:39:12.340Z,96478.69
2022-10-25T10:42:03.781Z,96479.84
2022-10-25T10:44:34.701Z,96468.81
2022-10-25T10:47:09.978Z,96472.91
2022-10-25T10:49:38.746Z,96465.09
2022-10-25T10:52:05.363Z,96471.16
2022-10-25T10:54:39.349Z,96464.50
2022-10-25T10:57:07.121Z,96461.75
2022-10-25T10:59:41.144Z,96470.72
2022-10-25T11:02:25.890Z,96465.41
2022-10-25T11:04:55.170Z,96461.72
2022-10-25T11:07:25.609Z,96451.63
2022-10-25T11:09:51.928Z,96453.97
2022-10-25T11:12:19.122Z,96458.41
2022-10-25T11:14:45.499Z,96450.22
2022-10-25T11:17:30.034Z,96440.31
2022-10-25T11:20:20.498Z,96442.59
2022-10-25T11:23:04.241Z,96431.34
2022-10-25T11:25:37.037Z,96434.22
2022-10-25T11:28:22.885Z,96445.59
2022-10-25T11:31:12.586Z,96438.16
2022-10-25T11:33:44.909Z,96440.22
2022-10-25T11:36:54.941Z,96437.13
2022-10-25T11:39:34.851Z,96432.63
2022-10-25T11:42:40.931Z,96433.47
2022-10-25T11:45:25.884Z,96432.72
2022-10-25T11:47:58.568Z,96427.03
2022-10-25T11:50:51.888Z,96426.00
2022-10-25T11:53:43.560Z,96421.69
2022-10-25T11:56:42.535Z,96422.19
2022-10-25T11:59:42.307Z,96416.16
2022-10-25T12:02:11.659Z,96419.06
2022-10-25T12:05:12.472Z,96412.22
2022-10-25T12:07:52.908Z,96417.28
2022-10-25T12:10:36.448Z,96422.66
2022-10-25T12:13:22.110Z,96423.94
2022-10-25T12:15:55.427Z,96427.50
2022-10-25T12:18:33.582Z,96423.19
2022-10-25T12:21:01.454Z,96425.34
2022-10-25T12:23:31.686Z,96411.78
2022-10-25T12:26:07.084Z,96412.97
2022-10-25T12:28:48.484Z,96412.19
2022-10-25T12:31:26.707Z,96422.34
2022-10-25T12:33:59.605Z,96421.34
2022-10-25T12:36:53.246Z,96414.22
2022-10-25T12:39:39.958Z,96413.22
2022-10-25T12:42:11.918Z,96410.56
2022-10-25T12:44:46.986Z,96406.50
2022-10-25T12:47:32.091Z,96408.28
2022-10-25T12:50:14.613Z,96390.94
2022-10-25T12:53:00.783Z,96396.78
2022-10-25T12:55:49.522Z,96391.63
2022-10-25T12:58:25.942Z,96388.88
2022-10-25T13:01:07.493Z,96389.53
2022-10-25T13:03:57.265Z,96387.56
2022-10-25T13:06:40.671Z,96391.03
2022-10-25T13:09:11.573Z,96391.66
2022-10-25T13:11:43.481Z,96382.16
2022-10-25T13:14:38.808Z,96380.53
2022-10-25T13:17:20.771Z,96382.47
2022-10-25T13:22:50.161Z,96378.63
2022-10-25T13:25:31.571Z,96378.16
2022-10-25T13:28:16.643Z,96372.13
2022-10-25T13:30:44.039Z,96377.22
2022-10-25T13:33:16.971Z,96375.94
2022-10-25T13:35:43.712Z,96375.25
2022-10-25T13:38:19.467Z,96376.88
2022-10-25T13:41:10.097Z,96366.50
2022-10-25T13:44:11.673Z,96368.56
2022-10-25T13:46:40.614Z,96377.31
2022-10-25T13:49:31.910Z,96375.34
2022-10-25T13:52:01.907Z,96369.63
2022-10-25T13:54:53.552Z,96374.28
2022-10-25T13:57:44.834Z,96373.34
2022-10-25T14:00:33.290Z,96360.59
2022-10-25T14:03:08.642Z,96365.66
2022-10-25T14:05:53.776Z,96361.56
2022-10-25T14:08:40.307Z,96365.28
2022-10-25T14:11:18.769Z,96356.34
2022-10-25T14:13:52.325Z,96360.69
2022-10-25T14:16:29.299Z,96360.44
2022-10-25T14:19:01.123Z,96356.47
2022-10-25T14:21:27.814Z,96357.59
2022-10-25T14:23:55.198Z,96349.78
2022-10-25T14:26:22.639Z,96358.19
2022-10-25T14:28:49.598Z,96351.03
2022-10-25T14:31:20.657Z,96356.63
2022-10-25T14:33:56.003Z,96351.84
2022-10-25T14:36:28.916Z,96358.75
2022-10-25T14:38:58.395Z,96354.59
2022-10-25T14:41:33.583Z,96356.88
2022-10-25T14:44:00.111Z,96360.19
2022-10-25T14:46:29.954Z,96352.34
2022-10-25T14:48:59.052Z,96368.72
2022-10-25T14:51:30.267Z,96362.56
2022-10-25T14:54:14.935Z,96349.56
2022-10-25T14:56:49.394Z,96350.88
2022-10-25T14:59:27.063Z,96352.41
2022-10-25T15:02:00.078Z,96344.47
2022-10-25T15:04:39.377Z,96351.38
2022-10-25T15:07:07.740Z,96349.41
2022-10-25T15:09:42.747Z,96333.97
2022-10-25T15:12:16.318Z,96333.13
2022-10-25T15:14:43.159Z,96323.53
2022-10-25T15:17:28.430Z,96328.72
2022-10-25T15:22:32.811Z,96317.34
2022-10-25T15:24:59.556Z,96327.59
2022-10-25T15:27:31.873Z,96317.25
2022-10-25T15:29:58.830Z,96320.09
2022-10-25T15:32:27.468Z,96323.91
2022-10-25T15:34:56.856Z,96325.13
2022-10-25T15:37:25.305Z,96331.94
2022-10-25T15:39:53.166Z,96337.44
2022-10-25T15:42:20.703Z,96327.47
2022-10-25T15:44:47.494Z,96327.47
2022-10-25T15:47:22.359Z,96324.34
2022-10-25T15:49:53.503Z,96324.34
2022-10-25T15:52:19.843Z,96325.38
2022-10-25T15:54:46.206Z,96323.59
2022-10-25T15:57:13.320Z,96328.69
2022-10-25T15:59:39.646Z,96326.34
2022-10-25T16:02:17.248Z,96332.84
2022-10-25T16:04:43.666Z,96330.22
2022-10-25T16:07:14.328Z,96327.53
2022-10-25T16:09:42.228Z,96330.53
2022-10-25T16:12:17.587Z,96333.50
2022-10-25T16:14:44.006Z,96338.38
2022-10-25T16:17:11.819Z,96339.25
2022-10-25T16:19:38.122Z,96348.41
2022-10-25T16:22:04.491Z,96347.06
2022-10-25T16:24:31.176Z,96346.25
2022-10-25T16:26:57.495Z,96345.13
2022-10-25T16:29:25.193Z,96348.94
2022-10-25T16:31:52.590Z,96351.66
2022-10-25T16:34:19.340Z,96341.66
2022-10-25T16:36:47.460Z,96349.34
2022-10-25T16:39:14.771Z,96344.75
2022-10-25T16:41:46.307Z,96342.72
2022-10-25T16:44:15.510Z,96344.16
2022-10-25T16:46:42.373Z,96349.97
2022-10-25T16:49:09.397Z,96351.44
2022-10-25T16:51:37.256Z,96346.78
2022-10-25T16:54:03.980Z,96345.81
2022-10-25T16:56:30.375Z,96353.00
2022-10-25T16:58:57.355Z,96352.38
2022-10-25T17:01:26.937Z,96347.50
2022-10-25T17:03:54.276Z,96342.00
2022-10-25T17:06:40.308Z,96347.53
2022-10-25T17:09:07.444Z,96341.22
2022-10-25T17:11:33.778Z,96351.03
2022-10-25T17:14:00.081Z,96353.50
2022-10-25T17:16:26.390Z,96342.88
2022-10-25T17:18:53.151Z,96347.97
2022-10-25T17:21:19.490Z,96351.91
2022-10-25T17:23:45.813Z,96350.06
2022-10-25T17:26:12.574Z,96347.84
2022-10-25T17:28:43.125Z,96346.63
2022-10-25T17:31:13.374Z,96352.53
2022-10-25T17:33:40.574Z,96356.41
2022-10-25T17:36:09.056Z,96345.81
2022-10-25T17:38:35.785Z,96350.91
2022-10-25T17:41:02.530Z,96355.59
2022-10-25T17:43:28.826Z,96342.53
2022-10-25T17:46:00.843Z,96342.13
2022-10-25T17:48:27.291Z,96345.78
2022-10-25T17:50:53.895Z,96344.94
2022-10-25T17:53:20.948Z,96345.78
2022-10-25T17:55:47.285Z,96352.28
2022-10-25T17:58:13.584Z,96341.69
2022-10-25T18:00:40.292Z,96344.13
2022-10-25T18:03:06.635Z,96340.03
2022-10-25T18:05:33.335Z,96332.69
2022-10-25T18:07:59.663Z,96340.22
2022-10-25T18:10:25.968Z,96347.34
2022-10-25T18:12:52.722Z,96350.16
2022-10-25T18:15:19.640Z,96345.66
2022-10-25T18:17:46.970Z,96333.00
2022-10-25T18:20:13.825Z,96333.84
2022-10-25T18:22:40.539Z,96334.44
2022-10-25T18:25:07.704Z,96342.53
2022-10-25T18:27:34.120Z,96333.16
2022-10-25T18:30:01.005Z,96340.25
2022-10-25T18:32:33.624Z,96332.88
2022-10-25T18:35:03.443Z,96336.09
2022-10-25T18:37:29.769Z,96334.88
2022-10-25T18:39:56.133Z,96341.41
2022-10-25T18:42:22.980Z,96331.22
2022-10-25T18:44:50.736Z,96336.75
2022-10-25T18:47:17.141Z,96336.53
2022-10-25T18:49:43.515Z,96332.81
2022-10-25T18:52:10.441Z,96338.13
2022-10-25T18:54:36.831Z,96331.38
2022-10-25T18:57:03.232Z,96336.03
2022-10-25T18:59:29.888Z,96320.31
2022-10-25T19:01:56.303Z,96333.94
2022-10-25T19:04:22.803Z,96328.03
2022-10-25T19:06:49.548Z,96335.13
2022-10-25T19:09:16.122Z,96325.53
2022-10-25T19:11:42.415Z,96336.72
2022-10-25T19:14:08.788Z,96325.13
2022-10-25T19:16:36.232Z,96337.78
2022-10-25T19:19:04.170Z,96336.97
2022-10-25T19:21:30.588Z,96333.06
2022-10-25T19:23:57.415Z,96335.69
2022-10-25T19:26:24.612Z,96328.88
2022-10-25T19:28:59.812Z,96326.97
2022-10-25T19:31:27.649Z,96328.19
2022-10-25T19:33:56.135Z,96328.84
2022-10-25T19:36:22.944Z,96321.53
2022-10-25T19:38:49.392Z,96327.22
2022-10-25T19:41:22.889Z,96316.84
2022-10-25T19:43:50.378Z,96318.88
2022-10-25T19:46:16.904Z,96318.06
2022-10-25T19:48:43.286Z,96312.97
2022-10-25T19:51:20.274Z,96304.81
2022-10-25T19:53:47.024Z,96306.66
2022-10-25T19:56:16.308Z,96308.06
2022-10-25T19:58:43.443Z,96308.38
2022-10-25T20:01:16.037Z,96299.38
2022-10-25T20:03:44.695Z,96309.13
2022-10-25T20:06:17.543Z,96304.22
2022-10-25T20:08:49.820Z,96306.28
2022-10-25T20:11:17.294Z,96293.94
2022-10-25T20:13:43.991Z,96302.69
2022-10-25T20:16:11.763Z,96308.53
2022-10-25T20:18:39.511Z,96303.25
2022-10-25T20:21:12.067Z,96302.97
2022-10-25T20:23:39.623Z,96311.28
2022-10-25T20:26:20.982Z,96297.69
2022-10-25T20:28:48.040Z,96308.25
2022-10-25T20:31:15.555Z,96295.63
2022-10-25T20:33:43.015Z,96300.69
2022-10-25T20:36:12.276Z,96305.22
2022-10-25T20:38:39.270Z,96308.31
2022-10-25T20:41:10.075Z,96301.94
2022-10-25T20:43:37.380Z,96307.38
2022-10-25T20:46:04.792Z,96307.06
2022-10-25T20:48:31.649Z,96301.53
2022-10-25T20:50:58.295Z,96296.72
2022-10-25T20:53:24.923Z,96298.31
2022-10-25T20:55:51.255Z,96310.09
2022-10-25T20:58:19.066Z,96307.16
2022-10-25T21:00:46.492Z,96297.97
2022-10-25T21:03:13.759Z,96309.66
2022-10-25T21:05:44.882Z,96308.97
2022-10-25T21:08:13.368Z,96302.00
2022-10-25T21:10:41.186Z,96299.09
2022-10-25T21:13:08.181Z,96300.47
2022-10-25T21:15:35.787Z,96292.84
2022-10-25T21:18:02.695Z,96291.72
2022-10-25T21:20:29.547Z,96293.31
2022-10-25T21:22:56.829Z,96291.41
2022-10-25T21:25:23.259Z,96290.78
2022-10-25T21:27:50.165Z,96292.44
2022-10-25T21:30:16.699Z,96284.25
2022-10-25T21:32:43.019Z,96283.63
2022-10-25T21:35:09.359Z,96283.34
2022-10-25T21:37:36.056Z,96298.91
2022-10-25T21:40:02.461Z,96295.09
2022-10-25T21:42:32.406Z,96288.56
2022-10-25T21:44:59.499Z,96282.09
2022-10-25T21:47:25.849Z,96285.28
2022-10-25T21:49:52.242Z,96289.75
2022-10-25T21:52:18.927Z,96284.09
2022-10-25T21:54:45.249Z,96277.19
2022-10-25T21:57:11.609Z,96280.84
2022-10-25T21:59:38.366Z,96275.69
2022-10-25T22:02:04.953Z,96274.03
2022-10-25T22:04:31.427Z,96272.44
2022-10-25T22:06:58.239Z,96276.38
2022-10-25T22:09:24.620Z,96278.59
2022-10-25T22:11:51.777Z,96278.59
2022-10-25T22:14:18.770Z,96273.75
2022-10-25T22:16:45.860Z,96280.47
2022-10-25T22:19:18.819Z,96272.03
2022-10-25T22:21:46.697Z,96274.69
2022-10-25T22:24:13.271Z,96275.56
2022-10-25T22:26:42.429Z,96269.34
2022-10-25T22:29:11.443Z,96265.34
2022-10-25T22:31:38.520Z,96265.91
2022-10-25T22:34:07.665Z,96271.69
2022-10-25T22:36:37.268Z,96278.59
2022-10-25T22:39:04.740Z,96275.59
2022-10-25T22:41:32.300Z,96273.38
2022-10-25T22:43:59.075Z,96267.72
2022-10-25T22:46:28.400Z,96270.59
2022-10-25T22:48:56.872Z,96254.50
2022-10-25T22:51:25.351Z,96252.94
2022-10-25T22:53:51.974Z,96241.88
2022-10-25T22:56:21.815Z,96221.25
2022-10-25T22:58:51.171Z,96211.31
2022-10-25T23:01:23.768Z,96185.53
2022-10-25T23:03:54.723Z,96196.22
2022-10-25T23:06:29.756Z,96218.06
2022-10-25T23:08:57.264Z,96217.19
2022-10-25T23:11:26.366Z,96206.03
2022-10-25T23:13:53.232Z,96200.78
2022-10-25T23:16:20.512Z,96189.44
2022-10-25T23:18:47.232Z,96193.94
2022-10-25T23:21:19.810Z,96192.13
2022-10-25T23:23:46.854Z,96192.34
2022-10-25T23:26:18.286Z,96207.06
2022-10-25T23:28:44.626Z,96236.81
2022-10-25T23:31:12.407Z,96246.19
2022-10-25T23:33:39.774Z,96236.81
2022-10-25T23:36:10.574Z,96232.34
2022-10-25T23:38:37.537Z,96243.16
2022-10-25T23:41:05.540Z,96237.66
2022-10-25T23:43:31.940Z,96232.78
2022-10-25T23:45:58.341Z,96232.78
2022-10-25T23:48:25.146Z,96226.66
2022-10-25T23:50:59.019Z,96226.44
2022-10-25T23:53:26.276Z,96231.72
2022-10-25T23:55:53.028Z,96227.03
2022-10-25T23:58:20.057Z,96226.59
